CDT,Max TemperatureF,Mean TemperatureF,Min TemperatureF,Max Dew PointF,MeanDew PointF,Min DewpointF,Max Humidity, Mean Humidity, Min Humidity, Max Sea Level PressureIn, Mean Sea Level PressureIn, Min Sea Level PressureIn, Max VisibilityMiles, Mean VisibilityMiles, Min VisibilityMiles, Max Wind SpeedMPH, Mean Wind SpeedMPH, Max Gust SpeedMPH,PrecipitationIn, CloudCover, Events, WindDirDegrees
2013-9-1,83,72,61,71,66,61,100,87,65,29.82,29.79,29.74,10,6,0,25,4,33,0.86,3,Fog-Rain-Thunderstorm,326
2013-9-2,79,68,57,64,60,56,90,75,54,29.99,29.91,29.81,10,10,10,14,7,17,0.00,2,,349
2013-9-3,75,64,52,57,54,50,93,74,48,30.10,30.05,30.00,10,10,10,10,3,14,0.00,0,,313
2013-9-4,81,67,53,62,57,53,97,75,47,30.13,30.10,30.06,10,9,2,12,4,15,0.00,0,,243
2013-9-5,75,65,55,64,57,48,100,73,46,30.25,30.20,30.11,10,10,5,17,8,22,T,2,,41
2013-9-6,83,69,55,67,59,50,87,69,53,30.22,30.14,30.02,10,10,10,12,5,15,0.00,2,,168
2013-9-7,85,74,62,68,64,61,96,75,49,30.01,29.95,29.89,10,9,5,16,5,21,T,1,,216
2013-9-8,79,75,70,68,66,65,87,78,69,30.02,29.98,29.94,10,9,6,18,10,24,0.00,5,,65
2013-9-9,90,79,67,74,70,65,97,75,59,29.96,29.88,29.82,10,8,4,15,9,21,0.00,0,,181
2013-9-10,92,82,72,71,66,64,76,58,41,29.99,29.96,29.88,10,10,10,24,12,30,0.00,0,,227
2013-9-11,88,79,70,71,67,65,91,72,55,30.04,30.00,29.98,10,10,8,15,6,20,0.01,1,Rain,243
2013-9-12,79,68,57,66,59,51,93,74,38,30.09,30.00,29.96,10,10,10,23,8,29,T,2,,329
2013-9-13,68,58,47,54,45,42,89,65,42,30.19,30.15,30.09,10,10,10,16,9,22,0.00,0,,18
2013-9-14,70,56,42,49,44,41,93,67,36,30.20,30.12,30.04,10,10,10,10,4,16,0.00,0,,186
2013-9-15,60,57,54,57,54,44,100,90,67,30.17,30.06,30.00,10,7,2,12,5,13,0.59,7,Rain,35
2013-9-16,65,55,45,56,49,44,94,80,54,30.36,30.29,30.18,10,10,10,17,9,24,T,2,Rain,26
2013-9-17,70,57,43,54,50,42,93,74,56,30.34,30.25,30.12,10,10,10,12,5,18,0.00,1,,124
2013-9-18,78,67,56,68,61,51,93,79,64,30.11,30.02,29.93,10,9,2,15,7,20,0.13,4,Rain,171
2013-9-19,89,79,68,73,68,62,100,83,50,29.95,29.89,29.77,10,5,2,20,9,28,0.04,4,Rain,166
2013-9-20,74,65,56,66,61,51,96,81,59,29.84,29.81,29.75,10,10,5,20,10,26,0.03,4,Rain,252
2013-9-21,67,56,45,52,48,43,93,74,52,29.96,29.88,29.82,10,10,10,16,8,21,0.00,1,,338
2013-9-22,69,56,42,49,45,41,96,74,47,30.06,30.02,29.97,10,10,9,14,4,17,0.00,0,,34
2013-9-23,69,57,45,50,46,42,93,72,43,30.12,30.07,30.04,10,10,10,12,5,15,0.00,0,,96
2013-9-24,71,60,48,51,48,44,89,70,45,30.06,30.00,29.94,10,10,9,14,7,18,0.00,0,,86
2013-9-25,72,59,45,56,49,45,100,79,47,29.98,29.96,29.94,10,8,2,14,6,17,0.00,0,,25
2013-9-26,77,61,44,54,49,44,100,73,34,30.09,30.04,29.97,10,7,2,13,4,16,0.00,0,,56
2013-9-27,81,65,49,55,50,44,100,64,34,30.17,30.11,30.06,10,9,2,14,5,17,0.00,0,,132
2013-9-28,84,68,52,66,56,44,97,66,39,30.08,29.98,29.89,10,9,2,25,12,35,0.29,3,Rain,182
2013-9-29,69,57,45,63,50,41,100,80,39,30.07,30.02,29.94,10,9,2,17,6,24,0.15,2,Rain,344
2013-9-30,74,58,41,55,47,40,93,70,37,30.01,29.95,29.88,10,10,10,14,5,17,0.00,0,,173